sensor_id;sensor_type;location;lat;lon;timestamp;P1;durP1;ratioP1;P2;durP2;ratioP2
72711;SDS011;60828;40.292;17.998;2022-09-01T00:02:13;10.90;;;6.07;;
72711;SDS011;60828;40.292;17.998;2022-09-01T00:04:41;11.52;;;7.15;;
72711;SDS011;60828;40.292;17.998;2022-09-01T00:07:09;12.45;;;6.60;;
72711;SDS011;60828;40.292;17.998;2022-09-01T00:09:36;10.33;;;6.33;;
72711;SDS011;60828;40.292;17.998;2022-09-01T00:12:02;10.50;;;6.35;;
72711;SDS011;60828;40.292;17.998;2022-09-01T00:14:32;11.13;;;6.88;;
72711;SDS011;60828;40.292;17.998;2022-09-01T00:17:02;10.40;;;7.00;;
72711;SDS011;60828;40.292;17.998;2022-09-01T00:19:30;10.13;;;6.80;;
72711;SDS011;60828;40.292;17.998;2022-09-01T00:21:57;12.45;;;7.00;;
72711;SDS011;60828;40.292;17.998;2022-09-01T00:24:25;11.20;;;7.22;;
72711;SDS011;60828;40.292;17.998;2022-09-01T00:26:52;12.27;;;7.47;;
72711;SDS011;60828;40.292;17.998;2022-09-01T00:29:21;12.18;;;7.55;;
72711;SDS011;60828;40.292;17.998;2022-09-01T00:31:47;12.93;;;7.57;;
72711;SDS011;60828;40.292;17.998;2022-09-01T00:34:13;11.45;;;7.00;;
72711;SDS011;60828;40.292;17.998;2022-09-01T00:36:39;11.82;;;7.22;;
72711;SDS011;60828;40.292;17.998;2022-09-01T00:39:05;14.07;;;7.93;;
72711;SDS011;60828;40.292;17.998;2022-09-01T00:41:32;12.05;;;7.70;;
72711;SDS011;60828;40.292;17.998;2022-09-01T00:44:01;12.35;;;8.10;;
72711;SDS011;60828;40.292;17.998;2022-09-01T00:46:34;11.10;;;7.40;;
72711;SDS011;60828;40.292;17.998;2022-09-01T00:49:08;11.95;;;7.95;;
72711;SDS011;60828;40.292;17.998;2022-09-01T00:51:41;13.25;;;8.00;;
72711;SDS011;60828;40.292;17.998;2022-09-01T00:54:15;13.27;;;8.38;;
72711;SDS011;60828;40.292;17.998;2022-09-01T00:56:48;12.85;;;7.95;;
72711;SDS011;60828;40.292;17.998;2022-09-01T00:59:16;12.20;;;8.23;;
72711;SDS011;60828;40.292;17.998;2022-09-01T01:01:44;13.30;;;8.38;;
72711;SDS011;60828;40.292;17.998;2022-09-01T01:04:13;12.27;;;8.00;;
72711;SDS011;60828;40.292;17.998;2022-09-01T01:06:46;12.35;;;7.78;;
72711;SDS011;60828;40.292;17.998;2022-09-01T01:09:22;14.13;;;7.72;;
72711;SDS011;60828;40.292;17.998;2022-09-01T01:11:48;10.63;;;8.05;;
72711;SDS011;60828;40.292;17.998;2022-09-01T01:14:15;11.07;;;7.73;;
72711;SDS011;60828;40.292;17.998;2022-09-01T01:16:43;14.18;;;7.75;;
72711;SDS011;60828;40.292;17.998;2022-09-01T01:19:56;11.30;;;7.40;;
72711;SDS011;60828;40.292;17.998;2022-09-01T01:28:16;12.88;;;7.93;;
72711;SDS011;60828;40.292;17.998;2022-09-01T01:30:55;12.32;;;7.07;;
72711;SDS011;60828;40.292;17.998;2022-09-01T01:33:26;13.30;;;8.07;;
72711;SDS011;60828;40.292;17.998;2022-09-01T01:35:56;11.52;;;7.60;;
72711;SDS011;60828;40.292;17.998;2022-09-01T01:38:22;16.80;;;8.50;;
72711;SDS011;60828;40.292;17.998;2022-09-01T01:40:51;12.30;;;7.50;;
72711;SDS011;60828;40.292;17.998;2022-09-01T01:43:17;13.00;;;7.78;;
72711;SDS011;60828;40.292;17.998;2022-09-01T01:45:47;14.60;;;8.20;;
72711;SDS011;60828;40.292;17.998;2022-09-01T01:48:16;13.03;;;7.50;;
72711;SDS011;60828;40.292;17.998;2022-09-01T01:50:47;11.15;;;7.60;;
72711;SDS011;60828;40.292;17.998;2022-09-01T01:53:15;14.95;;;7.55;;
72711;SDS011;60828;40.292;17.998;2022-09-01T01:55:46;11.32;;;7.95;;
72711;SDS011;60828;40.292;17.998;2022-09-01T01:58:16;11.57;;;7.95;;
72711;SDS011;60828;40.292;17.998;2022-09-01T02:00:43;13.50;;;7.97;;
72711;SDS011;60828;40.292;17.998;2022-09-01T02:03:12;12.63;;;7.95;;
72711;SDS011;60828;40.292;17.998;2022-09-01T02:05:43;12.77;;;7.90;;
72711;SDS011;60828;40.292;17.998;2022-09-01T02:08:12;13.55;;;8.32;;
72711;SDS011;60828;40.292;17.998;2022-09-01T02:10:43;15.88;;;9.32;;
72711;SDS011;60828;40.292;17.998;2022-09-01T02:13:11;15.03;;;9.17;;
72711;SDS011;60828;40.292;17.998;2022-09-01T02:15:45;17.85;;;10.15;;
72711;SDS011;60828;40.292;17.998;2022-09-01T02:18:14;15.25;;;9.95;;
72711;SDS011;60828;40.292;17.998;2022-09-01T02:20:46;15.48;;;9.80;;
72711;SDS011;60828;40.292;17.998;2022-09-01T02:23:13;17.75;;;10.50;;
72711;SDS011;60828;40.292;17.998;2022-09-01T02:25:42;16.10;;;10.23;;
72711;SDS011;60828;40.292;17.998;2022-09-01T02:28:14;16.73;;;10.07;;
72711;SDS011;60828;40.292;17.998;2022-09-01T02:30:44;15.23;;;9.85;;
72711;SDS011;60828;40.292;17.998;2022-09-01T02:33:13;15.20;;;9.93;;
72711;SDS011;60828;40.292;17.998;2022-09-01T02:35:43;16.17;;;11.13;;
72711;SDS011;60828;40.292;17.998;2022-09-01T02:38:10;18.80;;;10.63;;
72711;SDS011;60828;40.292;17.998;2022-09-01T02:40:41;18.23;;;11.20;;
72711;SDS011;60828;40.292;17.998;2022-09-01T02:43:11;18.65;;;10.73;;
72711;SDS011;60828;40.292;17.998;2022-09-01T02:45:39;15.40;;;10.68;;
72711;SDS011;60828;40.292;17.998;2022-09-01T02:48:08;17.60;;;10.68;;
72711;SDS011;60828;40.292;17.998;2022-09-01T02:50:38;14.53;;;10.37;;
72711;SDS011;60828;40.292;17.998;2022-09-01T02:53:05;17.80;;;10.60;;
72711;SDS011;60828;40.292;17.998;2022-09-01T02:55:34;15.25;;;10.32;;
72711;SDS011;60828;40.292;17.998;2022-09-01T02:58:01;18.45;;;9.98;;
72711;SDS011;60828;40.292;17.998;2022-09-01T03:00:27;16.80;;;10.63;;
72711;SDS011;60828;40.292;17.998;2022-09-01T03:03:05;15.80;;;9.95;;
72711;SDS011;60828;40.292;17.998;2022-09-01T03:05:32;14.70;;;9.88;;
72711;SDS011;60828;40.292;17.998;2022-09-01T03:08:01;14.50;;;9.68;;
72711;SDS011;60828;40.292;17.998;2022-09-01T03:10:30;17.15;;;10.25;;
72711;SDS011;60828;40.292;17.998;2022-09-01T03:13:02;16.20;;;10.50;;
72711;SDS011;60828;40.292;17.998;2022-09-01T03:15:32;16.95;;;10.18;;
72711;SDS011;60828;40.292;17.998;2022-09-01T03:18:00;16.05;;;10.55;;
72711;SDS011;60828;40.292;17.998;2022-09-01T03:20:28;17.42;;;11.70;;
72711;SDS011;60828;40.292;17.998;2022-09-01T20:28:06;13.15;;;7.10;;
72711;SDS011;60828;40.292;17.998;2022-09-01T20:30:43;13.07;;;7.60;;
72711;SDS011;60828;40.292;17.998;2022-09-01T20:41:56;12.55;;;6.22;;
72711;SDS011;60828;40.292;17.998;2022-09-01T20:44:32;10.75;;;6.07;;
72711;SDS011;60828;40.292;17.998;2022-09-01T20:47:01;9.68;;;5.55;;
72711;SDS011;60828;40.292;17.998;2022-09-01T20:49:30;10.48;;;5.40;;
72711;SDS011;60828;40.292;17.998;2022-09-01T21:02:27;10.75;;;6.25;;
72711;SDS011;60828;40.292;17.998;2022-09-01T21:04:59;11.63;;;7.18;;
72711;SDS011;60828;40.292;17.998;2022-09-01T21:10:56;11.20;;;6.43;;
72711;SDS011;60828;40.292;17.998;2022-09-01T21:22:03;11.15;;;7.57;;
72711;SDS011;60828;40.292;17.998;2022-09-01T21:24:37;15.00;;;7.40;;
72711;SDS011;60828;40.292;17.998;2022-09-01T21:27:07;16.40;;;7.32;;
72711;SDS011;60828;40.292;17.998;2022-09-01T21:30:10;17.75;;;9.55;;
72711;SDS011;60828;40.292;17.998;2022-09-01T21:32:33;11.75;;;7.07;;
72711;SDS011;60828;40.292;17.998;2022-09-01T21:35:00;14.25;;;7.90;;
72711;SDS011;60828;40.292;17.998;2022-09-01T21:37:28;14.07;;;7.67;;
72711;SDS011;60828;40.292;17.998;2022-09-01T21:39:54;15.55;;;7.90;;
72711;SDS011;60828;40.292;17.998;2022-09-01T21:42:21;12.70;;;7.70;;
72711;SDS011;60828;40.292;17.998;2022-09-01T21:44:49;11.73;;;7.85;;
72711;SDS011;60828;40.292;17.998;2022-09-01T21:47:15;11.52;;;7.20;;
72711;SDS011;60828;40.292;17.998;2022-09-01T21:49:41;11.37;;;7.10;;
72711;SDS011;60828;40.292;17.998;2022-09-01T21:52:07;16.25;;;8.25;;
72711;SDS011;60828;40.292;17.998;2022-09-01T21:54:33;13.95;;;8.18;;
72711;SDS011;60828;40.292;17.998;2022-09-01T21:56:59;13.93;;;7.88;;
72711;SDS011;60828;40.292;17.998;2022-09-01T21:59:25;16.20;;;8.47;;
72711;SDS011;60828;40.292;17.998;2022-09-01T22:01:51;14.33;;;7.90;;
72711;SDS011;60828;40.292;17.998;2022-09-01T22:04:16;14.63;;;7.88;;
72711;SDS011;60828;40.292;17.998;2022-09-01T22:06:43;14.97;;;8.67;;
72711;SDS011;60828;40.292;17.998;2022-09-01T22:09:09;13.82;;;8.48;;
72711;SDS011;60828;40.292;17.998;2022-09-01T22:11:35;13.88;;;7.65;;
72711;SDS011;60828;40.292;17.998;2022-09-01T22:14:03;16.30;;;7.95;;
72711;SDS011;60828;40.292;17.998;2022-09-01T22:16:30;16.73;;;8.40;;
72711;SDS011;60828;40.292;17.998;2022-09-01T22:18:56;13.90;;;7.80;;
72711;SDS011;60828;40.292;17.998;2022-09-01T22:21:23;12.52;;;8.10;;
72711;SDS011;60828;40.292;17.998;2022-09-01T22:23:49;13.13;;;8.38;;
72711;SDS011;60828;40.292;17.998;2022-09-01T22:26:22;13.57;;;8.30;;
72711;SDS011;60828;40.292;17.998;2022-09-01T22:28:49;19.05;;;7.78;;
72711;SDS011;60828;40.292;17.998;2022-09-01T22:31:16;13.98;;;8.05;;
72711;SDS011;60828;40.292;17.998;2022-09-01T22:33:43;14.10;;;7.90;;
72711;SDS011;60828;40.292;17.998;2022-09-01T22:36:09;16.17;;;9.67;;
72711;SDS011;60828;40.292;17.998;2022-09-01T22:38:34;14.48;;;8.15;;
72711;SDS011;60828;40.292;17.998;2022-09-01T22:41:00;11.43;;;8.70;;
72711;SDS011;60828;40.292;17.998;2022-09-01T22:43:26;12.55;;;8.13;;
72711;SDS011;60828;40.292;17.998;2022-09-01T22:45:54;14.77;;;7.63;;
72711;SDS011;60828;40.292;17.998;2022-09-01T22:48:21;14.93;;;7.80;;
72711;SDS011;60828;40.292;17.998;2022-09-01T22:50:48;13.00;;;7.47;;
72711;SDS011;60828;40.292;17.998;2022-09-01T22:53:15;13.02;;;7.68;;
72711;SDS011;60828;40.292;17.998;2022-09-01T22:55:43;13.50;;;7.88;;
72711;SDS011;60828;40.292;17.998;2022-09-01T22:58:11;14.48;;;7.15;;
72711;SDS011;60828;40.292;17.998;2022-09-01T23:00:37;13.95;;;7.40;;
72711;SDS011;60828;40.292;17.998;2022-09-01T23:03:11;11.30;;;5.93;;
72711;SDS011;60828;40.292;17.998;2022-09-01T23:05:39;8.65;;;5.90;;
72711;SDS011;60828;40.292;17.998;2022-09-01T23:08:04;12.15;;;6.32;;
72711;SDS011;60828;40.292;17.998;2022-09-01T23:10:30;11.47;;;6.30;;
72711;SDS011;60828;40.292;17.998;2022-09-01T23:12:56;8.52;;;5.55;;
72711;SDS011;60828;40.292;17.998;2022-09-01T23:15:22;8.35;;;5.82;;
72711;SDS011;60828;40.292;17.998;2022-09-01T23:17:47;9.70;;;5.43;;
72711;SDS011;60828;40.292;17.998;2022-09-01T23:20:13;8.83;;;5.40;;
72711;SDS011;60828;40.292;17.998;2022-09-01T23:22:39;7.90;;;5.30;;
72711;SDS011;60828;40.292;17.998;2022-09-01T23:25:06;10.32;;;5.53;;
72711;SDS011;60828;40.292;17.998;2022-09-01T23:27:34;10.35;;;5.00;;
72711;SDS011;60828;40.292;17.998;2022-09-01T23:30:00;7.27;;;4.83;;
72711;SDS011;60828;40.292;17.998;2022-09-01T23:32:26;8.73;;;5.38;;
72711;SDS011;60828;40.292;17.998;2022-09-01T23:34:51;10.27;;;6.05;;
72711;SDS011;60828;40.292;17.998;2022-09-01T23:37:17;9.05;;;5.45;;
